Time;durP1;ratioP1;P1;durP2;ratioP2;P2;SDS_P1;SDS_P2;PMS_P1;PMS_P2;Temp;Humidity;BMP_temperature;BMP_pressure;BME280_temperature;BME280_humidity;BME280_pressure;Samples;Min_cycle;Max_cycle;Signal;HPM_P1;HPM_P2
2024/03/31 00:01:11;;;;;;;3.58;1.50;;;15.90;58.10;;;;;;5102419;28;20020;-67
2024/03/31 00:03:38;;;;;;;6.57;1.63;;;15.80;58.40;;;;;;5102504;28;20036;-67
2024/03/31 00:06:04;;;;;;;3.53;1.60;;;15.30;58.50;;;;;;5102256;28;20100;-68
2024/03/31 00:08:30;;;;;;;4.32;1.63;;;15.60;59.00;;;;;;5102977;28;20028;-68
2024/03/31 00:11:04;;;;;;;6.57;1.83;;;15.60;59.00;;;;;;5102183;28;20081;-68
2024/03/31 00:13:29;;;;;;;4.22;1.40;;;15.60;82.30;;;;;;5102376;28;20083;-68
2024/03/31 00:15:55;;;;;;;5.35;1.40;;;15.60;78.10;;;;;;5101770;28;20044;-68
2024/03/31 00:18:21;;;;;;;3.53;1.38;;;15.80;79.40;;;;;;5102039;28;20339;-68
2024/03/31 00:20:53;;;;;;;7.50;1.70;;;15.70;60.70;;;;;;5101816;28;20042;-68
2024/03/31 00:23:19;;;;;;;7.15;2.33;;;15.60;59.00;;;;;;5101445;28;20020;-69
2024/03/31 00:25:45;;;;;;;3.78;1.30;;;15.60;59.10;;;;;;5102435;28;20032;-69
2024/03/31 00:28:11;;;;;;;6.78;1.55;;;15.60;59.00;;;;;;5101903;28;20129;-69
2024/03/31 00:30:36;;;;;;;4.03;1.52;;;15.60;58.90;;;;;;5101854;28;20047;-69
2024/03/31 00:33:02;;;;;;;3.88;1.35;;;15.60;59.20;;;;;;5101686;28;20028;-69
2024/03/31 00:35:29;;;;;;;9.65;1.92;;;15.60;59.50;;;;;;5101748;28;20356;-69
2024/03/31 00:37:55;;;;;;;3.70;1.23;;;15.60;59.30;;;;;;5101581;28;20324;-69
2024/03/31 00:40:20;;;;;;;5.25;1.45;;;15.70;59.00;;;;;;5083656;28;20032;-69
2024/03/31 00:42:46;;;;;;;9.60;1.60;;;15.90;57.50;;;;;;5102126;28;20031;-69
2024/03/31 00:45:12;;;;;;;7.35;1.50;;;15.90;58.10;;;;;;5101636;28;20035;-69
2024/03/31 00:47:38;;;;;;;4.13;1.55;;;15.90;58.00;;;;;;5083365;28;20067;-69
2024/03/31 00:50:04;;;;;;;4.65;1.42;;;15.90;58.50;;;;;;5100065;28;20335;-69
2024/03/31 00:52:30;;;;;;;4.20;1.30;;;15.90;58.00;;;;;;5101259;28;20312;-69
2024/03/31 00:54:55;;;;;;;11.73;2.03;;;15.90;57.60;;;;;;5083274;28;20032;-69
2024/03/31 00:57:21;;;;;;;6.45;1.92;;;15.90;57.60;;;;;;5101583;28;20032;-69
2024/03/31 00:59:46;;;;;;;10.23;1.52;;;16.00;57.50;;;;;;5101877;28;20227;-70
2024/03/31 01:02:12;;;;;;;4.75;1.80;;;16.00;57.20;;;;;;5105804;28;20069;-70
2024/03/31 01:04:38;;;;;;;2.97;1.20;;;16.10;56.80;;;;;;5101184;28;20040;-70
2024/03/31 01:07:04;;;;;;;9.80;1.60;;;16.20;56.60;;;;;;5100967;28;20371;-70
2024/03/31 01:09:30;;;;;;;5.05;1.58;;;16.40;77.20;;;;;;5101009;28;20027;-72
2024/03/31 01:11:55;;;;;;;6.25;1.52;;;16.40;56.00;;;;;;5101014;28;20035;-68
2024/03/31 01:14:21;;;;;;;4.65;1.50;;;16.40;55.80;;;;;;5082986;28;20027;-69
2024/03/31 01:16:50;;;;;;;4.72;1.27;;;16.40;55.80;;;;;;5103731;28;20035;-69
2024/03/31 01:19:16;;;;;;;5.22;1.45;;;16.40;55.80;;;;;;5105205;28;20069;-69
2024/03/31 01:21:42;;;;;;;4.70;1.30;;;16.50;55.80;;;;;;5109214;28;20040;-69
2024/03/31 01:24:08;;;;;;;5.15;1.58;;;16.50;55.70;;;;;;5113297;28;20020;-68
2024/03/31 01:26:36;;;;;;;4.88;1.60;;;16.50;55.60;;;;;;5100826;28;20039;-68
2024/03/31 01:29:01;;;;;;;6.60;1.20;;;16.50;55.50;;;;;;5100584;28;20303;-70
2024/03/31 01:31:27;;;;;;;7.05;1.60;;;16.50;55.40;;;;;;5100745;28;20074;-69
2024/03/31 01:33:53;;;;;;;4.63;1.33;;;16.50;55.30;;;;;;5100708;28;20049;-70
2024/03/31 01:36:18;;;;;;;6.75;1.52;;;16.50;55.20;;;;;;5109296;28;20028;-70
2024/03/31 01:38:44;;;;;;;4.38;1.73;;;16.40;55.30;;;;;;5111778;28;20031;-70
2024/03/31 01:41:10;;;;;;;6.47;1.55;;;16.40;56.00;;;;;;5102958;28;20391;-70
2024/03/31 01:43:37;;;;;;;7.63;1.73;;;16.20;55.80;;;;;;5100606;28;20077;-69
2024/03/31 01:46:02;;;;;;;5.13;1.55;;;16.20;56.50;;;;;;5103569;28;20040;-69
2024/03/31 01:48:28;;;;;;;8.68;1.80;;;16.10;56.40;;;;;;5100704;28;20032;-69
2024/03/31 01:50:54;;;;;;;9.85;2.47;;;16.10;56.50;;;;;;5101010;28;20316;-69
2024/03/31 01:53:19;;;;;;;6.15;1.75;;;16.10;56.30;;;;;;5100412;28;20044;-69
2024/03/31 01:55:45;;;;;;;6.22;1.85;;;16.10;56.00;;;;;;5100341;28;20032;-70
2024/03/31 01:58:11;;;;;;;7.93;1.50;;;16.10;55.80;;;;;;5081990;28;20399;-70
2024/03/31 02:00:36;;;;;;;6.97;1.80;;;16.20;55.70;;;;;;5100126;28;20083;-70
2024/03/31 02:03:02;;;;;;;7.80;1.98;;;16.20;55.30;;;;;;5099921;28;20026;-70
2024/03/31 02:05:28;;;;;;;5.05;1.70;;;16.20;55.10;;;;;;5102271;28;20040;-70
2024/03/31 02:07:56;;;;;;;10.73;2.00;;;16.20;54.90;;;;;;5100472;28;20321;-70
2024/03/31 02:10:22;;;;;;;3.63;1.30;;;16.20;54.80;;;;;;5100019;28;20030;-70
2024/03/31 02:12:48;;;;;;;6.05;2.30;;;16.20;54.90;;;;;;5081727;28;20031;-70
2024/03/31 02:15:13;;;;;;;12.57;2.22;;;16.20;54.80;;;;;;5101047;28;20083;-70
2024/03/31 02:17:40;;;;;;;12.95;2.47;;;16.20;54.70;;;;;;5099914;28;20028;-70
2024/03/31 02:20:07;;;;;;;4.88;1.85;;;16.20;54.80;;;;;;5091824;28;20036;-70
2024/03/31 02:22:33;;;;;;;8.07;2.22;;;16.10;55.00;;;;;;5065904;28;20031;-70
2024/03/31 02:24:58;;;;;;;11.82;2.60;;;16.00;55.40;;;;;;5099414;28;20040;-70
2024/03/31 02:27:24;;;;;;;10.07;3.47;;;16.00;55.30;;;;;;5099658;28;20054;-70
2024/03/31 02:29:50;;;;;;;10.85;2.95;;;15.90;55.40;;;;;;5072465;28;20207;-70
2024/03/31 02:32:15;;;;;;;10.35;3.20;;;15.90;55.90;;;;;;5099743;28;20043;-70
2024/03/31 02:34:41;;;;;;;8.77;2.63;;;15.80;55.90;;;;;;5099613;28;20036;-71
2024/03/31 02:37:06;;;;;;;4.93;2.00;;;15.70;77.50;;;;;;5069508;28;20059;-69
2024/03/31 02:39:32;;;;;;;16.33;2.75;;;15.60;56.20;;;;;;5095121;28;20034;-69
2024/03/31 02:41:58;;;;;;;7.60;1.40;;;15.60;56.60;;;;;;5100091;28;20036;-68
2024/03/31 02:44:24;;;;;;;6.05;2.05;;;15.40;56.40;;;;;;5099644;28;20024;-68
2024/03/31 02:46:49;;;;;;;9.23;2.08;;;15.40;57.30;;;;;;5098902;28;20316;-68
2024/03/31 02:49:17;;;;;;;7.95;1.85;;;15.20;91.20;;;;;;5099378;28;20023;-68
2024/03/31 02:51:43;;;;;;;6.13;2.95;;;15.40;87.20;;;;;;5081170;28;20246;-68
2024/03/31 02:54:09;;;;;;;9.38;2.20;;;15.10;91.40;;;;;;5099142;28;20052;-68
2024/03/31 02:56:35;;;;;;;7.35;1.95;;;15.30;95.60;;;;;;5099337;28;20020;-68
2024/03/31 02:59:00;;;;;;;6.38;2.17;;;15.20;56.50;;;;;;5099669;28;20035;-68
2024/03/31 03:01:26;;;;;;;10.02;1.98;;;15.20;56.50;;;;;;5099357;28;20052;-69
2024/03/31 03:03:52;;;;;;;8.07;2.33;;;15.20;56.40;;;;;;5099358;28;20355;-69
2024/03/31 03:06:17;;;;;;;8.10;2.08;;;15.10;56.50;;;;;;5100743;28;20046;-69
2024/03/31 03:08:43;;;;;;;5.90;1.75;;;15.10;56.70;;;;;;5099360;28;20099;-70
2024/03/31 03:11:10;;;;;;;8.38;2.78;;;15.10;56.60;;;;;;5099445;28;20066;-69
2024/03/31 03:13:36;;;;;;;3.65;1.70;;;15.10;56.30;;;;;;5099231;28;20312;-69
2024/03/31 03:16:05;;;;;;;7.35;2.22;;;15.10;56.50;;;;;;5099844;28;20048;-68
2024/03/31 03:18:30;;;;;;;12.70;2.25;;;15.10;56.20;;;;;;5099252;28;20082;-68
2024/03/31 03:20:57;;;;;;;7.55;1.92;;;15.00;55.90;;;;;;5098981;28;20256;-69
2024/03/31 03:23:23;;;;;;;8.10;2.08;;;15.00;56.00;;;;;;5099184;28;20032;-69
2024/03/31 03:25:56;;;;;;;10.73;2.42;;;15.00;55.90;;;;;;5089229;28;20024;-69
2024/03/31 03:28:22;;;;;;;5.55;1.60;;;15.00;55.90;;;;;;5099274;28;20036;-69
2024/03/31 03:30:48;;;;;;;7.68;2.30;;;15.00;55.50;;;;;;5098831;28;20447;-68
2024/03/31 03:33:14;;;;;;;7.38;1.80;;;15.00;55.10;;;;;;5081488;28;20024;-69
2024/03/31 03:35:40;;;;;;;8.68;2.10;;;15.00;55.00;;;;;;5098866;28;20062;-69
2024/03/31 03:38:08;;;;;;;6.03;2.10;;;15.60;54.70;;;;;;5098918;28;20034;-68
2024/03/31 03:40:34;;;;;;;11.23;2.53;;;15.10;53.90;;;;;;5098897;28;20053;-68
2024/03/31 03:42:59;;;;;;;10.35;2.65;;;15.00;53.40;;;;;;5098617;28;20059;-68
2024/03/31 03:45:25;;;;;;;6.53;2.00;;;15.00;54.00;;;;;;5100732;28;20150;-69
2024/03/31 03:47:51;;;;;;;9.05;2.45;;;14.90;54.20;;;;;;5098940;28;20243;-69
2024/03/31 03:50:16;;;;;;;5.55;2.20;;;14.90;54.40;;;;;;5081383;28;20204;-68
2024/03/31 03:52:42;;;;;;;7.88;1.80;;;14.80;54.90;;;;;;5098586;28;20042;-69
2024/03/31 03:55:08;;;;;;;3.55;1.67;;;14.70;55.60;;;;;;5098844;28;20055;-68
2024/03/31 03:57:33;;;;;;;11.73;1.67;;;14.50;77.70;;;;;;5099394;28;20047;-69
2024/03/31 03:59:59;;;;;;;9.00;2.10;;;14.50;56.50;;;;;;5102681;28;20042;-69
2024/03/31 04:02:25;;;;;;;7.60;2.05;;;14.40;57.10;;;;;;5102468;28;20027;-68
2024/03/31 04:04:51;;;;;;;9.23;2.17;;;14.40;56.80;;;;;;5102138;28;20327;-69
2024/03/31 04:07:17;;;;;;;10.77;2.42;;;;;;;;;;5102847;28;20222;-69
2024/03/31 04:09:43;;;;;;;7.07;1.90;;;14.20;55.50;;;;;;5101869;28;20331;-69
2024/03/31 04:12:10;;;;;;;11.80;2.08;;;14.30;56.00;;;;;;5101480;28;20036;-68
2024/03/31 04:14:35;;;;;;;7.25;1.95;;;14.20;74.30;;;;;;5106727;28;20031;-68
2024/03/31 04:17:01;;;;;;;11.85;2.97;;;14.40;73.80;;;;;;5107678;28;20220;-67
2024/03/31 04:19:27;;;;;;;16.42;2.22;;;14.30;55.60;;;;;;5101390;28;20077;-66
2024/03/31 04:21:54;;;;;;;14.82;2.40;;;14.40;55.00;;;;;;5103103;28;20185;-67
2024/03/31 04:24:20;;;;;;;9.38;2.38;;;14.40;72.70;;;;;;5111654;28;20027;-67
2024/03/31 04:26:46;;;;;;;7.15;2.15;;;14.40;55.10;;;;;;5104400;28;20087;-67
2024/03/31 04:29:11;;;;;;;6.22;2.58;;;14.10;72.50;;;;;;5101878;28;20378;-67
2024/03/31 04:31:52;;;;;;;9.85;2.63;;;14.30;72.60;;;;;;5101699;28;20036;-67
2024/03/31 04:34:18;;;;;;;9.18;1.83;;;14.30;72.80;;;;;;5101893;28;20028;-67
2024/03/31 04:36:44;;;;;;;12.48;1.90;;;14.30;55.00;;;;;;5101743;28;20922;-68
2024/03/31 04:39:10;;;;;;;14.32;2.67;;;14.20;73.00;;;;;;5102012;28;20039;-67
2024/03/31 04:41:35;;;;;;;13.13;2.33;;;14.20;72.90;;;;;;5084316;28;20342;-68
2024/03/31 04:44:01;;;;;;;11.55;2.38;;;14.20;72.60;;;;;;5101697;28;20027;-68
2024/03/31 04:46:27;;;;;;;9.13;2.40;;;14.10;72.70;;;;;;5101651;28;20243;-68
2024/03/31 04:48:52;;;;;;;10.00;2.10;;;14.30;54.40;;;;;;5101308;28;20103;-68
2024/03/31 04:51:21;;;;;;;9.23;1.75;;;14.30;71.80;;;;;;5101865;28;20027;-68
2024/03/31 04:53:47;;;;;;;7.25;2.75;;;14.30;71.70;;;;;;5101296;28;20059;-67
2024/03/31 04:56:12;;;;;;;10.02;2.33;;;14.30;53.70;;;;;;5083361;28;20044;-68
2024/03/31 04:58:38;;;;;;;13.77;2.45;;;14.30;71.50;;;;;;5102173;28;20028;-68
2024/03/31 05:01:04;;;;;;;8.13;2.08;;;14.30;72.00;;;;;;5101215;28;20043;-68
2024/03/31 05:03:30;;;;;;;5.38;1.90;;;14.40;71.30;;;;;;5101413;28;20145;-68
2024/03/31 05:05:55;;;;;;;6.47;2.42;;;14.20;70.90;;;;;;5101371;28;20035;-68
2024/03/31 05:08:22;;;;;;;5.32;2.05;;;14.30;52.80;;;;;;5100974;28;20355;-67
2024/03/31 05:10:58;;;;;;;9.35;2.05;;;14.30;71.20;;;;;;5101682;28;20074;-70
2024/03/31 05:13:27;;;;;;;7.45;2.10;;;14.20;53.30;;;;;;5104617;28;20048;-69
2024/03/31 05:16:03;;;;;;;;;;;14.30;53.20;;;;;;5102796;28;20040;-69
2024/03/31 05:18:28;;;;;;;10.93;2.28;;;14.10;70.90;;;;;;5103868;28;19920;-69
2024/03/31 05:21:08;;;;;;;7.05;2.78;;;14.10;70.90;;;;;;5103894;28;20442;-68
2024/03/31 05:23:35;;;;;;;8.80;2.28;;;14.30;53.20;;;;;;5101994;28;20054;-67
2024/03/31 05:26:01;;;;;;;6.35;2.08;;;14.40;72.10;;;;;;5101193;28;20562;-67
2024/03/31 05:28:28;;;;;;;8.10;2.13;;;14.30;53.80;;;;;;5101147;28;20032;-67
2024/03/31 05:30:54;;;;;;;11.43;2.42;;;14.50;71.60;;;;;;5108728;28;20083;-67
2024/03/31 05:33:20;;;;;;;17.20;2.50;;;14.40;53.50;;;;;;5100986;28;20039;-67
2024/03/31 05:35:46;;;;;;;4.65;1.67;;;14.50;71.10;;;;;;5100892;28;20040;-67
2024/03/31 05:38:15;;;;;;;11.90;1.80;;;14.50;53.30;;;;;;5101280;28;20020;-67
2024/03/31 05:40:41;;;;;;;;;;;14.50;52.70;;;;;;5101177;28;20036;-67
2024/03/31 05:43:07;;;;;;;14.30;2.33;;;14.70;70.40;;;;;;5098940;28;19977;-67
2024/03/31 05:45:34;;;;;;;9.52;1.98;;;14.60;52.30;;;;;;5096160;28;20032;-68
2024/03/31 05:48:02;;;;;;;13.57;1.85;;;14.70;52.30;;;;;;5100966;28;20034;-68
2024/03/31 05:50:27;;;;;;;10.93;2.58;;;14.80;52.40;;;;;;5100359;28;20024;-67
2024/03/31 05:52:53;;;;;;;7.13;1.85;;;14.80;53.00;;;;;;5081679;28;20059;-67
2024/03/31 05:55:19;;;;;;;7.03;1.90;;;14.80;53.20;;;;;;5100702;28;20032;-68
2024/03/31 05:57:45;;;;;;;7.47;2.28;;;14.90;52.50;;;;;;5102972;28;20079;-67
2024/03/31 06:00:11;;;;;;;9.63;1.73;;;15.00;51.90;;;;;;5100479;28;20036;-68
2024/03/31 06:02:36;;;;;;;10.20;2.20;;;15.20;51.70;;;;;;5082415;28;20043;-69
2024/03/31 06:05:03;;;;;;;13.52;2.13;;;15.20;51.90;;;;;;5107438;27;20266;-70
2024/03/31 06:07:31;;;;;;;5.93;1.88;;;15.30;51.80;;;;;;5099994;28;20032;-71
2024/03/31 06:09:58;;;;;;;4.38;1.65;;;15.50;50.80;;;;;;5099966;28;20042;-68
2024/03/31 06:12:24;;;;;;;8.20;1.80;;;15.50;67.20;;;;;;5100060;28;20027;-68
2024/03/31 06:14:50;;;;;;;6.90;1.83;;;;;;;;;;5099765;28;20107;-67
2024/03/31 06:17:16;;;;;;;5.13;1.60;;;15.70;67.10;;;;;;5100036;28;20328;-69
2024/03/31 06:19:42;;;;;;;18.17;3.03;;;15.90;67.90;;;;;;5099909;28;20070;-69
2024/03/31 06:22:08;;;;;;;10.70;1.75;;;16.00;69.10;;;;;;5100008;28;20032;-68
2024/03/31 06:24:34;;;;;;;10.52;1.90;;;;;;;;;;5099715;28;20035;-66
2024/03/31 06:26:59;;;;;;;10.25;1.85;;;16.30;64.80;;;;;;5107780;28;20063;-67
2024/03/31 06:29:25;;;;;;;10.02;3.25;;;16.50;64.50;;;;;;5099762;28;20028;-67
2024/03/31 06:31:51;;;;;;;9.48;1.65;;;16.50;47.90;;;;;;5099455;28;20348;-67
2024/03/31 06:34:18;;;;;;;7.15;1.40;;;16.70;47.10;;;;;;5099622;28;20035;-67
2024/03/31 06:36:43;;;;;;;11.40;1.90;;;16.90;46.30;;;;;;5099393;28;20055;-67
2024/03/31 06:39:09;;;;;;;7.55;1.48;;;17.00;45.50;;;;;;5100184;28;20032;-67
2024/03/31 06:41:35;;;;;;;12.00;1.70;;;17.00;44.90;;;;;;5099228;28;20137;-67
2024/03/31 06:44:01;;;;;;;8.40;1.80;;;17.10;43.70;;;;;;5106820;28;20036;-67
2024/03/31 06:46:26;;;;;;;7.13;1.67;;;17.20;44.40;;;;;;5099718;28;20032;-67
2024/03/31 06:48:52;;;;;;;10.20;1.52;;;17.30;43.80;;;;;;5109224;28;20099;-67
2024/03/31 06:51:18;;;;;;;10.68;1.80;;;17.40;43.20;;;;;;5106149;28;20036;-68
2024/03/31 06:53:44;;;;;;;9.60;1.58;;;17.50;42.80;;;;;;5088148;28;20340;-68
2024/03/31 06:56:09;;;;;;;11.85;1.88;;;17.60;59.50;;;;;;5080549;28;20036;-65
2024/03/31 06:58:35;;;;;;;8.15;2.00;;;17.50;42.70;;;;;;5079241;28;20043;-68
2024/03/31 07:01:01;;;;;;;7.32;1.52;;;17.70;61.40;;;;;;5078837;28;20355;-70
2024/03/31 07:03:27;;;;;;;4.32;1.50;;;17.70;42.80;;;;;;5079534;28;20037;-72
2024/03/31 07:05:53;;;;;;;8.40;1.25;;;17.80;42.60;;;;;;5087338;28;20060;-70
2024/03/31 07:08:18;;;;;;;11.05;1.80;;;17.90;42.30;;;;;;5079550;28;20236;-69
2024/03/31 07:10:44;;;;;;;10.73;1.35;;;18.00;41.30;;;;;;5079022;28;20324;-69
2024/03/31 07:13:10;;;;;;;5.65;2.03;;;18.00;41.80;;;;;;5079933;28;20028;-70
2024/03/31 07:15:36;;;;;;;13.00;2.78;;;18.00;41.50;;;;;;5079237;28;20236;-70
2024/03/31 07:18:06;;;;;;;13.18;3.85;;;18.10;41.40;;;;;;5060979;28;20082;-69
2024/03/31 07:20:33;;;;;;;5.97;1.80;;;18.10;40.10;;;;;;5078930;28;20029;-68
2024/03/31 07:22:58;;;;;;;8.55;1.63;;;18.10;40.60;;;;;;5084562;28;20039;-69
2024/03/31 07:25:24;;;;;;;5.90;1.48;;;18.20;40.50;;;;;;5097510;28;20083;-69
2024/03/31 07:27:51;;;;;;;19.67;3.30;;;;;;;;;;5078627;28;20074;-68
2024/03/31 07:30:16;;;;;;;11.35;2.40;;;18.30;55.10;;;;;;5079358;28;20102;-68
2024/03/31 07:32:42;;;;;;;5.70;1.38;;;18.40;55.30;;;;;;5079713;28;20028;-66
2024/03/31 07:35:08;;;;;;;11.60;2.40;;;;;;;;;;5082575;28;20340;-65
2024/03/31 07:37:34;;;;;;;10.48;1.83;;;18.60;54.20;;;;;;5082447;28;20047;-66
2024/03/31 07:39:59;;;;;;;21.90;2.15;;;18.50;53.60;;;;;;5084881;28;20032;-67
2024/03/31 07:42:25;;;;;;;11.57;1.70;;;18.70;58.60;;;;;;5088071;28;20040;-66
2024/03/31 07:44:51;;;;;;;8.70;1.83;;;18.70;39.20;;;;;;5082397;28;20028;-66
2024/03/31 07:47:16;;;;;;;11.73;1.77;;;19.00;39.10;;;;;;5083010;28;20263;-66
2024/03/31 07:49:42;;;;;;;10.35;1.45;;;19.20;38.60;;;;;;5082237;28;20089;-66
2024/03/31 07:52:08;;;;;;;8.32;1.73;;;19.60;52.40;;;;;;5064178;28;20043;-66
2024/03/31 07:54:33;;;;;;;11.65;2.00;;;19.50;38.20;;;;;;5109188;28;20404;-66
2024/03/31 07:56:59;;;;;;;13.63;1.88;;;19.80;53.70;;;;;;5103313;28;20294;-66
2024/03/31 07:59:25;;;;;;;16.02;2.10;;;19.80;38.10;;;;;;5104430;28;20031;-66
2024/03/31 08:01:53;;;;;;;15.23;1.50;;;20.00;38.10;;;;;;5102536;28;20248;-66
2024/03/31 08:04:19;;;;;;;10.40;1.63;;;20.20;40.20;;;;;;5104247;28;20028;-66
2024/03/31 08:06:44;;;;;;;14.65;1.60;;;20.50;38.90;;;;;;5105159;28;20658;-67
2024/03/31 08:09:11;;;;;;;13.40;2.00;;;;;;;;;;5102611;28;20042;-66
2024/03/31 08:11:36;;;;;;;5.75;2.25;;;20.80;36.30;;;;;;5102568;28;20028;-66
2024/03/31 08:14:02;;;;;;;14.57;2.75;;;21.00;36.70;;;;;;5102334;28;20078;-66
2024/03/31 08:16:28;;;;;;;12.02;1.63;;;21.20;36.20;;;;;;5108894;28;20027;-66
2024/03/31 08:18:53;;;;;;;11.75;1.90;;;21.30;36.20;;;;;;5077084;28;20097;-65
2024/03/31 08:21:19;;;;;;;6.78;1.55;;;21.40;36.20;;;;;;5084532;28;20099;-67
2024/03/31 08:23:45;;;;;;;11.90;2.80;;;21.30;49.00;;;;;;5101970;28;20277;-66
2024/03/31 08:26:11;;;;;;;15.35;1.83;;;21.20;48.90;;;;;;5101926;28;20020;-67
2024/03/31 08:28:36;;;;;;;12.13;1.92;;;21.20;49.80;;;;;;5101758;28;20036;-66
2024/03/31 08:31:02;;;;;;;14.07;1.42;;;21.10;36.70;;;;;;5101718;28;20035;-68
2024/03/31 08:33:28;;;;;;;12.77;2.78;;;21.40;49.30;;;;;;5069075;28;20527;-67
2024/03/31 08:35:54;;;;;;;10.02;2.33;;;21.60;50.60;;;;;;5105700;28;20095;-67
2024/03/31 08:38:20;;;;;;;11.73;2.40;;;21.80;50.30;;;;;;5090893;28;20051;-66
2024/03/31 08:41:07;;;;;;;9.77;2.28;;;21.90;49.00;;;;;;5103613;28;20035;-67
2024/03/31 08:43:45;;;;;;;9.10;1.85;;;21.90;48.70;;;;;;5103812;28;20055;-66
2024/03/31 08:46:11;;;;;;;20.58;3.30;;;22.00;48.50;;;;;;5107106;28;20289;-67
2024/03/31 08:48:38;;;;;;;19.45;3.50;;;22.10;47.60;;;;;;5101541;28;20032;-65
2024/03/31 08:51:05;;;;;;;22.63;2.70;;;22.10;46.70;;;;;;5101228;28;20031;-66
2024/03/31 08:53:32;;;;;;;10.57;1.92;;;22.20;47.30;;;;;;5101341;28;20051;-65
2024/03/31 08:55:58;;;;;;;13.57;1.92;;;22.10;35.10;;;;;;5102843;28;20320;-66
2024/03/31 08:58:24;;;;;;;15.05;2.25;;;22.20;46.40;;;;;;5101613;28;20042;-68
2024/03/31 09:00:50;;;;;;;12.55;1.77;;;22.20;46.60;;;;;;5101217;28;20312;-67
2024/03/31 09:03:17;;;;;;;18.50;2.60;;;22.30;46.50;;;;;;5102487;28;20032;-67
2024/03/31 09:05:43;;;;;;;13.38;2.50;;;22.70;47.30;;;;;;5083243;28;20028;-67
2024/03/31 09:08:09;;;;;;;13.82;2.45;;;22.40;34.60;;;;;;5101359;28;20050;-69
2024/03/31 09:10:36;;;;;;;17.17;3.75;;;;;;;;;;5100757;28;20104;-69
2024/03/31 09:13:06;;;;;;;13.13;2.92;;;22.70;44.30;;;;;;5101307;28;20032;-69
2024/03/31 09:15:33;;;;;;;10.25;2.30;;;22.80;45.60;;;;;;5110593;28;20059;-69
2024/03/31 09:17:59;;;;;;;12.23;2.30;;;22.90;44.80;;;;;;5101529;28;20044;-69
2024/03/31 09:20:25;;;;;;;7.60;2.05;;;22.80;44.30;;;;;;5101074;28;20389;-69
2024/03/31 09:22:51;;;;;;;22.90;3.25;;;22.90;45.40;;;;;;5081136;28;20332;-69
2024/03/31 09:25:19;;;;;;;13.25;2.95;;;23.00;46.10;;;;;;5099377;28;20096;-69
2024/03/31 09:27:46;;;;;;;20.33;3.70;;;23.20;47.10;;;;;;5099300;28;20039;-68
2024/03/31 09:30:12;;;;;;;18.48;3.10;;;23.20;34.00;;;;;;5103836;28;20024;-69
2024/03/31 09:32:38;;;;;;;16.05;3.45;;;23.30;34.00;;;;;;5099657;28;20035;-69
2024/03/31 09:35:06;;;;;;;18.67;3.58;;;23.40;34.40;;;;;;5100670;28;20221;-69
2024/03/31 09:37:35;;;;;;;15.65;2.75;;;23.40;35.00;;;;;;5081022;28;20032;-68
2024/03/31 09:40:04;;;;;;;15.95;3.90;;;23.40;35.60;;;;;;5099545;28;20132;-69
2024/03/31 09:42:31;;;;;;;16.55;2.88;;;23.60;50.30;;;;;;5100039;28;20089;-69
2024/03/31 09:44:57;;;;;;;15.02;2.80;;;23.10;34.70;;;;;;5100531;28;20051;-68
2024/03/31 09:47:27;;;;;;;22.73;3.05;;;23.60;35.10;;;;;;5100907;28;20312;-69
2024/03/31 09:50:20;;;;;;;15.10;3.20;;;23.60;34.30;;;;;;5100258;28;20271;-69
2024/03/31 09:52:55;;;;;;;19.58;2.65;;;23.70;34.20;;;;;;5100273;28;20351;-69
2024/03/31 09:55:24;;;;;;;19.15;3.40;;;23.80;34.20;;;;;;5099100;28;20050;-69
2024/03/31 09:57:51;;;;;;;13.25;2.55;;;23.90;34.40;;;;;;5065392;28;20025;-69
2024/03/31 10:00:18;;;;;;;24.17;3.63;;;24.00;34.40;;;;;;5100224;28;20036;-69
2024/03/31 10:02:50;;;;;;;14.25;2.63;;;24.00;34.40;;;;;;5100674;28;20062;-69
2024/03/31 10:05:28;;;;;;;27.02;3.67;;;24.10;34.10;;;;;;5104856;28;20031;-69
2024/03/31 10:07:54;;;;;;;25.17;4.13;;;24.20;34.50;;;;;;5101582;28;20039;-69
2024/03/31 10:10:22;;;;;;;18.42;3.13;;;24.40;34.30;;;;;;5100284;28;20028;-69
2024/03/31 10:12:49;;;;;;;17.77;3.95;;;24.40;34.10;;;;;;5099910;28;20442;-69
2024/03/31 10:15:16;;;;;;;32.13;5.05;;;24.60;34.70;;;;;;5103349;28;20032;-68
2024/03/31 10:17:44;;;;;;;12.52;3.03;;;24.70;44.50;;;;;;5103284;28;20043;-69
2024/03/31 10:20:10;;;;;;;;;;;24.70;33.90;;;;;;5100846;28;20019;-69
2024/03/31 10:22:37;;;;;;;17.98;3.58;;;24.80;38.50;;;;;;5099776;28;19916;-69
2024/03/31 10:25:03;;;;;;;12.07;3.25;;;24.70;44.60;;;;;;5109743;28;20035;-69
2024/03/31 10:27:29;;;;;;;21.95;4.40;;;;;;;;;;5091507;28;20020;-68
2024/03/31 10:29:57;;;;;;;19.10;3.50;;;24.70;33.80;;;;;;5099502;28;20027;-69
2024/03/31 10:32:23;;;;;;;20.88;3.17;;;;;;;;;;5099886;28;20028;-69
2024/03/31 10:34:49;;;;;;;19.83;3.55;;;24.40;34.00;;;;;;5099560;28;20028;-68
2024/03/31 10:37:16;;;;;;;18.15;3.40;;;23.90;45.90;;;;;;5100158;28;20066;-69
2024/03/31 10:39:44;;;;;;;29.25;4.85;;;24.40;46.30;;;;;;5099986;28;20024;-69
2024/03/31 10:42:10;;;;;;;18.50;2.85;;;24.30;45.50;;;;;;5099667;28;20251;-69
2024/03/31 10:44:39;;;;;;;24.83;4.00;;;24.10;46.10;;;;;;5099634;28;20028;-69
2024/03/31 10:47:05;;;;;;;19.25;4.60;;;24.60;48.30;;;;;;5099278;28;20346;-69
2024/03/31 10:49:41;;;;;;;22.73;3.63;;;24.40;46.10;;;;;;5099509;28;20036;-69
2024/03/31 10:52:13;;;;;;;14.38;2.50;;;24.30;45.90;;;;;;5099533;28;20031;-69
2024/03/31 10:54:40;;;;;;;17.38;3.53;;;24.10;46.20;;;;;;5099861;28;20056;-68
2024/03/31 10:57:11;;;;;;;17.05;3.13;;;24.40;46.50;;;;;;5099161;28;20039;-69
2024/03/31 10:59:46;;;;;;;14.02;2.97;;;24.40;46.40;;;;;;5081239;28;20107;-69
2024/03/31 11:02:14;;;;;;;14.65;3.55;;;24.30;46.10;;;;;;5099438;28;20036;-69
2024/03/31 11:04:44;;;;;;;22.17;4.35;;;24.60;46.30;;;;;;5099415;28;20028;-69
2024/03/31 11:07:16;;;;;;;24.60;3.58;;;24.70;39.60;;;;;;5101151;28;20035;-70
2024/03/31 11:09:43;;;;;;;10.18;2.85;;;24.80;34.30;;;;;;5103642;28;20094;-69
2024/03/31 11:12:12;;;;;;;19.33;3.33;;;25.00;47.10;;;;;;5104086;28;20028;-71
2024/03/31 11:14:38;;;;;;;19.55;3.20;;;25.10;34.90;;;;;;5103490;28;20030;-69
2024/03/31 11:17:05;;;;;;;20.88;3.38;;;25.50;34.70;;;;;;5103327;28;20063;-69
2024/03/31 11:19:32;;;;;;;36.30;4.53;;;25.70;34.40;;;;;;5103385;28;20024;-69
2024/03/31 11:22:04;;;;;;;17.48;2.80;;;26.00;35.00;;;;;;5103388;28;20040;-69
2024/03/31 11:24:31;;;;;;;14.40;2.97;;;26.40;35.10;;;;;;5103756;28;20031;-70
2024/03/31 11:26:58;;;;;;;21.33;3.92;;;26.60;33.90;;;;;;5102998;28;20043;-69
2024/03/31 11:29:25;;;;;;;22.48;3.90;;;26.30;48.70;;;;;;5089403;28;20038;-69
2024/03/31 11:31:50;;;;;;;16.13;3.15;;;26.60;33.30;;;;;;5103269;28;20347;-69
2024/03/31 11:34:18;;;;;;;21.67;4.13;;;26.60;33.30;;;;;;5103285;28;20090;-69
2024/03/31 11:36:44;;;;;;;15.43;2.33;;;26.50;32.90;;;;;;5104240;28;20095;-68
2024/03/31 11:39:11;;;;;;;23.95;3.88;;;26.40;33.10;;;;;;5103158;28;20055;-69
2024/03/31 11:41:37;;;;;;;16.42;3.47;;;26.30;33.00;;;;;;5068737;28;20033;-69
2024/03/31 11:44:03;;;;;;;12.35;2.78;;;26.00;32.40;;;;;;5102516;28;20189;-69
2024/03/31 11:46:30;;;;;;;21.75;3.67;;;25.90;33.40;;;;;;5103264;28;20027;-69
2024/03/31 11:48:59;;;;;;;25.20;3.30;;;25.80;33.30;;;;;;5102727;28;20107;-69
2024/03/31 11:51:35;;;;;;;21.00;3.67;;;25.80;33.40;;;;;;5102793;28;20024;-69
2024/03/31 11:54:01;;;;;;;21.73;3.33;;;25.80;33.50;;;;;;5102572;28;20576;-69
2024/03/31 11:56:27;;;;;;;16.23;4.07;;;25.80;34.10;;;;;;5102607;28;20060;-69
2024/03/31 11:58:53;;;;;;;19.77;3.97;;;25.70;33.20;;;;;;5102419;28;20039;-68
2024/03/31 12:01:22;;;;;;;25.20;3.38;;;25.50;33.00;;;;;;5103103;28;20023;-69
2024/03/31 12:03:57;;;;;;;20.60;3.70;;;25.30;33.10;;;;;;5102373;28;20020;-69
2024/03/31 12:06:25;;;;;;;26.05;4.68;;;25.30;33.40;;;;;;5102237;28;20304;-69
2024/03/31 12:08:51;;;;;;;23.92;3.45;;;25.50;33.30;;;;;;5075788;28;20055;-69
2024/03/31 12:11:20;;;;;;;27.15;4.45;;;25.60;33.00;;;;;;5104076;28;20073;-69
2024/03/31 12:13:49;;;;;;;30.27;4.68;;;25.60;32.70;;;;;;5102281;28;20146;-69
2024/03/31 12:16:20;;;;;;;11.35;3.10;;;25.60;32.70;;;;;;5102308;28;20093;-69
2024/03/31 12:18:49;;;;;;;14.95;3.05;;;25.90;45.60;;;;;;5109401;28;20239;-69
2024/03/31 12:21:22;;;;;;;23.85;4.68;;;25.90;32.60;;;;;;5102481;28;20035;-69
2024/03/31 12:23:50;;;;;;;22.92;3.17;;;26.00;32.70;;;;;;5102268;28;20258;-69
2024/03/31 12:26:18;;;;;;;22.52;3.38;;;26.40;44.30;;;;;;5102165;28;20031;-69
2024/03/31 12:28:45;;;;;;;16.88;3.90;;;26.90;43.20;;;;;;5101992;28;20054;-69
2024/03/31 12:31:19;;;;;;;12.95;3.28;;;27.20;34.50;;;;;;5102158;28;20035;-69
2024/03/31 12:33:46;;;;;;;21.45;3.65;;;27.10;41.30;;;;;;5102132;28;20038;-70
2024/03/31 12:36:12;;;;;;;26.98;4.85;;;27.30;41.50;;;;;;5102849;28;20074;-69
2024/03/31 12:38:38;;;;;;;35.17;4.88;;;27.50;41.20;;;;;;5101851;28;20055;-69
2024/03/31 12:41:13;;;;;;;27.52;4.53;;;27.80;40.50;;;;;;5083506;28;20024;-70
2024/03/31 12:43:39;;;;;;;20.00;3.85;;;27.80;30.50;;;;;;5102040;28;20157;-69